createdAt,value
2022-12-06T00:00:11.907Z,9.17
2022-12-06T00:03:36.908Z,10.37
2022-12-06T00:07:00.672Z,11.00
2022-12-06T00:10:25.201Z,8.63
2022-12-06T00:13:49.552Z,9.50
2022-12-06T00:17:14.602Z,8.70
2022-12-06T00:20:38.632Z,9.60
2022-12-06T00:24:05.128Z,8.00
2022-12-06T00:27:29.215Z,8.40
2022-12-06T00:30:53.022Z,8.17
2022-12-06T00:34:18.189Z,9.57
2022-12-06T00:37:41.840Z,8.63
2022-12-06T00:41:07.396Z,9.63
2022-12-06T00:44:31.059Z,8.27
2022-12-06T00:47:54.644Z,8.20
2022-12-06T00:51:21.344Z,7.70
2022-12-06T00:54:44.964Z,7.90
2022-12-06T00:58:08.588Z,8.40
2022-12-06T01:01:35.889Z,8.10
2022-12-06T01:04:59.705Z,7.13
2022-12-06T01:08:24.759Z,8.33
2022-12-06T01:11:48.442Z,8.83
2022-12-06T01:15:12.357Z,8.50
2022-12-06T01:18:36.024Z,7.60
2022-12-06T01:21:59.631Z,7.63
2022-12-06T01:25:26.278Z,8.27
2022-12-06T01:28:50.569Z,8.30
2022-12-06T01:32:14.428Z,8.33
2022-12-06T01:35:41.194Z,9.63
2022-12-06T01:39:07.006Z,7.20
2022-12-06T01:42:32.331Z,8.10
2022-12-06T01:45:56.343Z,8.80
2022-12-06T01:49:27.418Z,8.37
2022-12-06T01:52:56.968Z,8.47
2022-12-06T01:56:21.664Z,7.53
2022-12-06T01:59:47.185Z,7.40
2022-12-06T02:03:17.059Z,7.93
2022-12-06T02:06:41.917Z,6.93
2022-12-06T02:10:06.792Z,8.00
2022-12-06T02:13:32.595Z,7.50
2022-12-06T02:17:11.984Z,7.87
2022-12-06T02:20:42.586Z,7.43
2022-12-06T02:24:43.980Z,7.37
2022-12-06T02:28:28.446Z,8.30
2022-12-06T02:31:59.309Z,9.23
2022-12-06T02:35:32.561Z,9.17
2022-12-06T02:39:00.662Z,8.77
2022-12-06T02:42:28.136Z,8.60
2022-12-06T02:45:56.171Z,8.63
2022-12-06T02:49:24.213Z,8.00
2022-12-06T02:52:51.746Z,7.50
2022-12-06T02:56:17.747Z,7.70
2022-12-06T02:59:51.041Z,7.47
2022-12-06T03:03:51.916Z,7.20
2022-12-06T03:07:35.541Z,8.20
2022-12-06T03:11:03.669Z,6.63
2022-12-06T03:14:30.250Z,8.40
2022-12-06T03:17:59.421Z,6.53
2022-12-06T03:21:27.704Z,6.63
2022-12-06T03:24:53.908Z,6.17
2022-12-06T03:28:20.086Z,5.87
2022-12-06T03:31:46.610Z,6.20
2022-12-06T03:35:12.969Z,6.70
2022-12-06T03:38:51.337Z,6.07
2022-12-06T03:42:17.098Z,7.07
2022-12-06T03:45:48.046Z,7.47
2022-12-06T03:49:17.519Z,6.33
2022-12-06T03:52:42.229Z,7.43
2022-12-06T03:56:07.531Z,7.00
2022-12-06T03:59:34.073Z,6.93
2022-12-06T04:02:58.129Z,7.20
2022-12-06T04:06:21.780Z,6.97
2022-12-06T04:10:02.320Z,7.53
2022-12-06T04:13:28.509Z,6.80
2022-12-06T04:17:10.991Z,7.20
2022-12-06T04:20:48.888Z,7.40
2022-12-06T04:24:12.784Z,6.70
2022-12-06T04:27:54.243Z,5.43
2022-12-06T04:31:36.170Z,5.90
2022-12-06T04:35:18.362Z,5.73
2022-12-06T04:38:42.701Z,5.27
2022-12-06T04:42:24.164Z,7.13
2022-12-06T04:45:47.801Z,5.00
2022-12-06T04:49:11.468Z,5.97
2022-12-06T04:52:36.623Z,6.10
2022-12-06T04:56:00.954Z,6.27
2022-12-06T04:59:25.256Z,5.50
2022-12-06T05:02:48.926Z,6.50
2022-12-06T05:06:12.594Z,6.70
2022-12-06T05:09:37.741Z,6.70
2022-12-06T05:13:02.237Z,7.57
2022-12-06T05:16:26.137Z,7.90
2022-12-06T05:19:49.865Z,8.70
2022-12-06T05:23:14.073Z,7.47
2022-12-06T05:26:39.198Z,6.93
2022-12-06T05:30:02.871Z,7.77
2022-12-06T05:33:27.903Z,7.20
2022-12-06T05:36:51.595Z,7.47
2022-12-06T05:40:15.308Z,7.80
2022-12-06T05:43:40.322Z,8.10
2022-12-06T05:47:12.594Z,8.30
2022-12-06T05:50:36.615Z,7.80
2022-12-06T05:54:02.909Z,7.97
2022-12-06T05:57:26.561Z,7.57
2022-12-06T06:00:52.028Z,7.07
2022-12-06T06:04:16.507Z,8.50
2022-12-06T06:07:40.343Z,9.10
2022-12-06T06:11:04.268Z,8.00
2022-12-06T06:14:28.250Z,7.30
2022-12-06T06:17:53.453Z,9.10
2022-12-06T06:21:17.121Z,8.70
2022-12-06T06:24:42.960Z,8.40
2022-12-06T06:28:06.734Z,7.70
2022-12-06T06:31:30.418Z,7.87
2022-12-06T06:34:55.435Z,8.37
2022-12-06T06:38:19.219Z,8.90
2022-12-06T06:41:42.833Z,9.20
2022-12-06T06:45:07.845Z,8.70
2022-12-06T06:48:33.593Z,8.47
2022-12-06T06:51:58.673Z,8.27
2022-12-06T06:55:22.368Z,8.00
2022-12-06T06:58:46.008Z,7.87
2022-12-06T07:02:12.803Z,7.50
2022-12-06T07:05:36.709Z,9.27
2022-12-06T07:09:02.145Z,9.03
2022-12-06T07:12:25.843Z,8.90
2022-12-06T07:15:49.889Z,9.20
2022-12-06T07:19:13.532Z,8.87
2022-12-06T07:22:37.377Z,9.83
2022-12-06T07:26:04.260Z,9.10
2022-12-06T07:29:29.419Z,9.63
2022-12-06T07:32:53.081Z,9.53
2022-12-06T07:36:17.199Z,12.60
2022-12-06T07:39:40.796Z,9.97
2022-12-06T07:43:19.652Z,9.10
2022-12-06T07:46:44.101Z,8.70
2022-12-06T07:50:17.649Z,8.87
2022-12-06T07:53:41.974Z,10.83
2022-12-06T07:57:05.633Z,11.53
2022-12-06T08:00:33.835Z,9.60
2022-12-06T08:03:59.352Z,10.43
2022-12-06T08:07:24.249Z,9.60
2022-12-06T08:10:47.989Z,9.63
2022-12-06T08:14:13.110Z,9.07
2022-12-06T08:17:38.272Z,9.37
2022-12-06T08:21:02.279Z,9.80
2022-12-06T08:24:25.895Z,10.10
2022-12-06T08:27:49.751Z,14.37
2022-12-06T08:31:16.582Z,9.60
2022-12-06T08:34:42.827Z,10.80
2022-12-06T08:38:06.762Z,8.50
2022-12-06T08:41:48.285Z,8.77
2022-12-06T08:45:12.289Z,9.93
2022-12-06T08:48:42.623Z,9.37
2022-12-06T08:52:08.111Z,11.63
2022-12-06T08:55:31.813Z,11.30
2022-12-06T08:58:56.059Z,11.80
2022-12-06T09:02:19.660Z,9.47
2022-12-06T09:05:43.434Z,10.20
2022-12-06T09:09:09.927Z,10.17
2022-12-06T09:12:33.685Z,10.90
2022-12-06T09:15:57.933Z,10.50
2022-12-06T09:19:22.325Z,8.60
2022-12-06T09:22:46.005Z,9.50
2022-12-06T09:26:10.960Z,10.50
2022-12-06T09:29:40.365Z,8.40
2022-12-06T09:33:04.579Z,9.93
2022-12-06T09:36:29.946Z,9.07
2022-12-06T09:39:58.587Z,10.70
2022-12-06T09:43:38.466Z,10.90
2022-12-06T09:47:18.120Z,9.60
2022-12-06T09:50:49.270Z,10.60
2022-12-06T09:54:27.200Z,9.87
2022-12-06T09:57:57.058Z,11.27
2022-12-06T10:01:30.325Z,11.00
2022-12-06T10:05:14.205Z,11.73
2022-12-06T10:09:00.073Z,10.43
2022-12-06T10:12:34.652Z,9.80
2022-12-06T10:16:10.075Z,11.40
2022-12-06T10:19:50.349Z,11.23
2022-12-06T10:23:28.645Z,11.60
2022-12-06T10:26:54.370Z,12.30
2022-12-06T10:30:18.805Z,11.93
2022-12-06T10:33:53.481Z,13.17
2022-12-06T10:37:32.383Z,10.50
2022-12-06T10:41:06.091Z,10.70
2022-12-06T10:44:35.020Z,10.70
2022-12-06T10:48:01.943Z,11.30
2022-12-06T10:51:35.548Z,11.97
2022-12-06T10:55:10.424Z,11.97
2022-12-06T10:58:39.945Z,12.07
2022-12-06T11:02:22.740Z,12.40
2022-12-06T11:05:51.175Z,13.00
2022-12-06T11:09:21.897Z,13.33
2022-12-06T11:12:47.247Z,15.47
2022-12-06T11:16:15.283Z,14.40
2022-12-06T11:19:40.873Z,13.30
2022-12-06T11:23:11.979Z,13.80
2022-12-06T11:26:41.230Z,12.83
2022-12-06T11:30:20.008Z,12.97
2022-12-06T11:33:44.279Z,13.70
2022-12-06T11:37:11.285Z,12.67
2022-12-06T11:40:38.116Z,15.50
2022-12-06T11:44:02.176Z,14.90
2022-12-06T11:47:27.433Z,13.70
2022-12-06T11:50:53.816Z,13.70
2022-12-06T11:54:23.578Z,15.47
2022-12-06T11:57:52.997Z,13.43
2022-12-06T12:01:16.751Z,11.83
2022-12-06T12:04:43.140Z,12.90
2022-12-06T12:08:08.780Z,12.03
2022-12-06T12:11:35.277Z,13.20
2022-12-06T12:15:00.032Z,13.83
2022-12-06T12:18:27.236Z,13.63
2022-12-06T12:21:54.420Z,14.23
2022-12-06T12:25:27.546Z,15.07
2022-12-06T12:29:05.150Z,14.33
2022-12-06T12:32:28.808Z,13.90
2022-12-06T12:35:56.039Z,14.53
2022-12-06T12:39:33.660Z,12.77
2022-12-06T12:42:59.866Z,13.63
2022-12-06T12:46:25.006Z,12.87
2022-12-06T12:50:02.270Z,14.37
2022-12-06T12:53:30.581Z,13.77
2022-12-06T12:56:56.641Z,14.07
2022-12-06T13:00:22.807Z,13.20
2022-12-06T13:03:51.824Z,15.40
2022-12-06T13:07:22.844Z,12.83
2022-12-06T13:10:49.447Z,12.00
2022-12-06T13:14:20.157Z,10.70
2022-12-06T13:17:46.268Z,10.70
2022-12-06T13:21:18.166Z,11.10
2022-12-06T13:24:45.898Z,11.47
2022-12-06T13:28:17.887Z,12.20
2022-12-06T13:31:43.267Z,10.80
2022-12-06T13:35:19.130Z,11.50
2022-12-06T13:38:43.989Z,10.03
2022-12-06T13:42:23.448Z,10.70
2022-12-06T13:45:50.825Z,11.17
2022-12-06T13:49:26.752Z,11.80
2022-12-06T13:53:03.445Z,10.63
2022-12-06T13:56:31.748Z,10.30
2022-12-06T13:59:58.797Z,9.37
2022-12-06T14:03:40.491Z,10.63
2022-12-06T14:10:32.823Z,10.10
2022-12-06T14:14:08.995Z,10.47
2022-12-06T14:21:31.252Z,9.80
2022-12-06T14:25:02.466Z,9.63
2022-12-06T14:28:37.579Z,9.07
2022-12-06T14:32:01.356Z,10.27
2022-12-06T14:35:27.130Z,8.60
2022-12-06T14:39:00.554Z,9.33
2022-12-06T14:42:43.282Z,10.07
2022-12-06T14:46:11.168Z,9.40
2022-12-06T14:49:54.371Z,9.90
2022-12-06T14:53:30.032Z,10.50
2022-12-06T14:56:54.184Z,11.27
2022-12-06T15:00:27.076Z,10.50
2022-12-06T15:03:59.175Z,11.70
2022-12-06T15:07:38.606Z,10.27
2022-12-06T15:11:05.012Z,9.57
2022-12-06T15:14:30.692Z,9.33
2022-12-06T15:17:55.804Z,36.13
2022-12-06T15:21:19.492Z,10.87
2022-12-06T15:24:45.655Z,10.83
2022-12-06T15:28:09.275Z,11.40
2022-12-06T15:31:33.669Z,8.20
2022-12-06T15:34:58.564Z,9.70
2022-12-06T15:38:22.493Z,17.10
2022-12-06T15:41:46.553Z,24.33
2022-12-06T15:45:15.928Z,10.57
2022-12-06T15:48:40.215Z,8.90
2022-12-06T15:52:05.510Z,10.63
2022-12-06T15:55:29.253Z,11.13
2022-12-06T15:58:52.831Z,13.53
2022-12-06T16:02:18.450Z,15.27
2022-12-06T16:05:42.877Z,12.23
2022-12-06T16:09:08.170Z,10.83
2022-12-06T16:12:52.105Z,13.07
2022-12-06T16:16:16.455Z,11.83
2022-12-06T16:19:57.451Z,11.90
2022-12-06T16:24:11.995Z,12.60
2022-12-06T16:27:25.573Z,11.60
2022-12-06T16:30:49.041Z,12.90
2022-12-06T16:34:12.617Z,12.27
2022-12-06T16:37:36.433Z,13.70
2022-12-06T16:41:08.077Z,10.30
2022-12-06T16:44:33.145Z,8.77
2022-12-06T16:47:56.693Z,9.37
2022-12-06T16:51:20.411Z,8.60
2022-12-06T16:54:44.275Z,10.20
2022-12-06T16:58:08.179Z,9.20
2022-12-06T17:01:38.015Z,12.30
2022-12-06T17:05:06.269Z,13.43
2022-12-06T17:08:30.289Z,10.80
2022-12-06T17:12:06.722Z,9.87
2022-12-06T17:15:30.587Z,10.13
2022-12-06T17:18:55.469Z,10.40
2022-12-06T17:22:19.690Z,10.97
2022-12-06T17:25:43.247Z,10.90
2022-12-06T17:29:07.443Z,9.50
2022-12-06T17:32:31.122Z,8.70
2022-12-06T17:35:55.968Z,9.73
2022-12-06T17:39:21.291Z,10.00
2022-12-06T17:43:02.732Z,10.27
2022-12-06T17:46:26.386Z,10.60
2022-12-06T17:49:50.106Z,9.23
2022-12-06T17:53:15.062Z,10.90
2022-12-06T17:56:40.419Z,10.00
2022-12-06T18:00:05.346Z,10.70
2022-12-06T18:03:30.759Z,9.17
2022-12-06T18:06:58.045Z,10.00
2022-12-06T18:10:25.156Z,9.63
2022-12-06T18:13:49.043Z,9.43
2022-12-06T18:17:18.757Z,9.50
2022-12-06T18:20:47.355Z,10.20
2022-12-06T18:24:21.334Z,11.37
2022-12-06T18:27:48.738Z,10.33
2022-12-06T18:31:13.432Z,10.50
2022-12-06T18:34:37.228Z,9.17
2022-12-06T18:38:00.827Z,9.40
2022-12-06T18:41:25.503Z,10.93
2022-12-06T18:44:53.669Z,11.93
2022-12-06T18:48:21.530Z,12.03
2022-12-06T18:51:45.253Z,11.40
2022-12-06T18:55:09.608Z,12.80
2022-12-06T18:58:33.273Z,11.80
2022-12-06T19:01:58.723Z,11.47
2022-12-06T19:05:46.237Z,12.33
2022-12-06T19:09:09.251Z,13.53
2022-12-06T19:12:32.853Z,11.90
2022-12-06T19:16:02.257Z,12.47
2022-12-06T19:19:28.011Z,15.60
2022-12-06T19:22:51.586Z,12.80
2022-12-06T19:26:15.430Z,12.23
2022-12-06T19:29:38.968Z,15.73
2022-12-06T19:33:02.676Z,12.40
2022-12-06T19:36:29.527Z,10.40
2022-12-06T19:39:55.441Z,11.20
2022-12-06T19:44:02.727Z,9.83
2022-12-06T19:47:26.337Z,10.80
2022-12-06T19:50:50.533Z,12.10
2022-12-06T19:54:18.128Z,12.30
2022-12-06T19:57:45.388Z,11.93
2022-12-06T20:01:10.473Z,12.03
2022-12-06T20:04:36.943Z,11.30
2022-12-06T20:08:02.882Z,12.30
2022-12-06T20:11:48.317Z,11.60
2022-12-06T20:15:13.678Z,13.57
2022-12-06T20:18:43.179Z,11.80
2022-12-06T20:22:14.256Z,11.77
2022-12-06T20:25:40.873Z,12.60
2022-12-06T20:29:11.277Z,11.83
2022-12-06T20:32:37.064Z,12.17
2022-12-06T20:36:05.143Z,13.07
2022-12-06T20:39:35.058Z,14.73
2022-12-06T20:43:01.177Z,11.93
2022-12-06T20:46:32.265Z,10.40
2022-12-06T20:49:59.191Z,14.03
2022-12-06T20:53:23.213Z,11.27
2022-12-06T20:56:53.658Z,12.50
2022-12-06T21:00:19.174Z,12.40
2022-12-06T21:03:44.210Z,12.87
2022-12-06T21:07:07.904Z,12.60
2022-12-06T21:10:31.540Z,12.37
2022-12-06T21:13:57.204Z,13.93
2022-12-06T21:17:21.692Z,15.23
2022-12-06T21:20:49.293Z,14.03
2022-12-06T21:24:22.984Z,13.43
2022-12-06T21:27:46.587Z,12.70
2022-12-06T21:31:12.818Z,10.83
2022-12-06T21:34:45.849Z,13.37
2022-12-06T21:38:11.397Z,13.30
2022-12-06T21:41:35.101Z,12.77
2022-12-06T21:44:58.618Z,12.33
2022-12-06T21:48:22.141Z,12.87
2022-12-06T21:51:45.658Z,13.47
2022-12-06T21:55:11.386Z,11.60
2022-12-06T21:58:35.353Z,11.97
2022-12-06T22:02:01.308Z,11.10
2022-12-06T22:05:25.208Z,10.23
2022-12-06T22:08:50.106Z,9.67
2022-12-06T22:12:15.777Z,10.00
2022-12-06T22:15:39.338Z,9.43
2022-12-06T22:19:03.357Z,9.27
2022-12-06T22:22:26.916Z,7.80
2022-12-06T22:25:50.475Z,7.40
2022-12-06T22:29:15.905Z,7.33
2022-12-06T22:32:39.490Z,7.40
2022-12-06T22:36:03.371Z,7.50
2022-12-06T22:39:26.974Z,9.07
2022-12-06T22:42:50.512Z,7.60
2022-12-06T22:46:17.551Z,8.07
2022-12-06T22:49:41.292Z,7.33
2022-12-06T22:53:04.906Z,9.20
2022-12-06T22:56:30.208Z,8.70
2022-12-06T22:59:53.931Z,10.80
2022-12-06T23:03:18.941Z,10.70
2022-12-06T23:06:42.753Z,10.17
2022-12-06T23:10:08.031Z,10.73
2022-12-06T23:13:33.860Z,11.10
2022-12-06T23:16:57.700Z,10.63
2022-12-06T23:20:22.662Z,9.33
2022-12-06T23:23:48.417Z,10.03
2022-12-06T23:27:12.228Z,9.73
2022-12-06T23:30:35.692Z,12.80
2022-12-06T23:34:01.732Z,12.90
2022-12-06T23:37:26.596Z,12.00
2022-12-06T23:40:50.141Z,12.93
2022-12-06T23:44:14.830Z,13.53
2022-12-06T23:47:38.691Z,17.10
2022-12-06T23:51:03.793Z,14.67
2022-12-06T23:54:31.899Z,15.90
2022-12-06T23:57:56.011Z,16.73
